createdAt,value
2022-09-03T00:02:27.869Z,100579.00
2022-09-03T00:05:24.617Z,100576.00
2022-09-03T00:08:12.888Z,100583.00
2022-09-03T00:11:07.184Z,100574.00
2022-09-03T00:13:51.882Z,100575.00
2022-09-03T00:16:22.189Z,100569.00
2022-09-03T00:19:00.918Z,100571.00
2022-09-03T00:21:49.901Z,100572.00
2022-09-03T00:24:19.941Z,100564.00
2022-09-03T00:26:58.322Z,100567.00
2022-09-03T00:29:29.892Z,100566.00
2022-09-03T00:31:58.575Z,100566.00
2022-09-03T00:34:41.025Z,100575.00
2022-09-03T00:37:15.540Z,100563.00
2022-09-03T00:39:44.252Z,100563.00
2022-09-03T00:42:21.250Z,100566.00
2022-09-03T00:45:12.690Z,100568.00
2022-09-03T00:48:05.777Z,100567.00
2022-09-03T00:50:46.669Z,100566.00
2022-09-03T00:53:41.995Z,100572.00
2022-09-03T00:56:20.495Z,100572.00
2022-09-03T00:59:10.148Z,100566.00
2022-09-03T01:01:38.216Z,100564.00
2022-09-03T01:04:30.772Z,100556.00
2022-09-03T01:07:01.778Z,100554.00
2022-09-03T01:09:41.124Z,100558.00
2022-09-03T01:12:23.563Z,100556.00
2022-09-03T01:15:34.078Z,100549.00
2022-09-03T01:18:21.608Z,100562.00
2022-09-03T01:21:12.084Z,100567.00
2022-09-03T01:24:09.347Z,100565.00
2022-09-03T01:26:55.264Z,100569.00
2022-09-03T01:29:39.674Z,100562.00
2022-09-03T01:32:20.296Z,100566.00
2022-09-03T01:35:04.290Z,100559.00
2022-09-03T01:38:00.243Z,100567.00
2022-09-03T01:40:52.117Z,100559.00
2022-09-03T01:43:45.631Z,100570.00
2022-09-03T01:46:33.374Z,100568.00
2022-09-03T01:49:35.437Z,100564.00
2022-09-03T01:52:18.235Z,100568.00
2022-09-03T01:55:02.197Z,100570.00
2022-09-03T01:57:49.873Z,100569.00
2022-09-03T02:00:21.949Z,100569.00
2022-09-03T02:02:51.933Z,100570.00
2022-09-03T02:05:25.070Z,100568.00
2022-09-03T02:07:58.185Z,100566.00
2022-09-03T02:10:33.661Z,100564.00
2022-09-03T02:13:26.030Z,100559.00
2022-09-03T02:15:57.216Z,100560.00
2022-09-03T02:18:31.197Z,100567.00
2022-09-03T02:21:00.343Z,100564.00
2022-09-03T02:23:28.889Z,100559.00
2022-09-03T02:26:02.377Z,100562.00
2022-09-03T02:28:32.407Z,100561.00
2022-09-03T02:31:00.509Z,100558.00
2022-09-03T02:33:28.849Z,100553.00
2022-09-03T02:35:57.096Z,100553.00
2022-09-03T02:38:26.814Z,100558.00
2022-09-03T02:40:55.371Z,100549.00
2022-09-03T02:43:31.789Z,100553.00
2022-09-03T02:46:13.547Z,100553.00
2022-09-03T02:48:41.467Z,100563.00
2022-09-03T02:51:13.983Z,100566.00
2022-09-03T02:53:43.572Z,100558.00
2022-09-03T02:56:13.444Z,100561.00
2022-09-03T02:58:41.774Z,100563.00
2022-09-03T03:01:09.680Z,100558.00
2022-09-03T03:03:37.739Z,100555.00
2022-09-03T03:06:07.334Z,100554.00
2022-09-03T03:08:35.397Z,100547.00
2022-09-03T03:11:03.543Z,100549.00
2022-09-03T03:13:38.384Z,100554.00
2022-09-03T03:16:06.975Z,100552.00
2022-09-03T03:18:35.290Z,100548.00
2022-09-03T03:21:08.315Z,100551.00
2022-09-03T03:23:37.064Z,100538.00
2022-09-03T03:26:10.952Z,100539.00
2022-09-03T03:28:38.889Z,100533.00
2022-09-03T03:31:15.308Z,100532.00
2022-09-03T03:33:43.746Z,100540.00
2022-09-03T03:36:16.534Z,100528.00
2022-09-03T03:38:44.837Z,100529.00
2022-09-03T03:41:22.177Z,100541.00
2022-09-03T03:43:57.479Z,100536.00
2022-09-03T03:46:26.344Z,100544.00
2022-09-03T03:48:55.613Z,100540.00
2022-09-03T03:51:24.099Z,100541.00
2022-09-03T03:53:56.834Z,100542.00
2022-09-03T03:56:26.471Z,100547.00
2022-09-03T03:58:55.142Z,100547.00
2022-09-03T04:01:25.739Z,100541.00
2022-09-03T04:03:56.287Z,100535.00
2022-09-03T04:06:24.955Z,100539.00
2022-09-03T04:08:53.061Z,100532.00
2022-09-03T04:11:22.606Z,100544.00
2022-09-03T04:13:51.452Z,100538.00
2022-09-03T04:16:24.735Z,100541.00
2022-09-03T04:18:53.202Z,100538.00
2022-09-03T04:21:24.238Z,100530.00
2022-09-03T04:23:54.087Z,100531.00
2022-09-03T04:26:24.803Z,100528.00
2022-09-03T04:28:53.354Z,100528.00
2022-09-03T04:31:22.825Z,100527.00
2022-09-03T04:33:51.765Z,100526.00
2022-09-03T04:36:24.358Z,100529.00
2022-09-03T04:38:56.925Z,100530.00
2022-09-03T04:41:27.246Z,100534.00
2022-09-03T04:43:57.226Z,100536.00
2022-09-03T04:46:28.033Z,100535.00
2022-09-03T04:48:56.539Z,100533.00
2022-09-03T04:51:27.684Z,100532.00
2022-09-03T04:54:01.655Z,100530.00
2022-09-03T04:56:31.848Z,100535.00
2022-09-03T04:59:09.131Z,100528.00
2022-09-03T05:01:38.888Z,100532.00
2022-09-03T05:04:07.751Z,100532.00
2022-09-03T05:06:37.179Z,100535.00
2022-09-03T05:09:05.903Z,100534.00
2022-09-03T05:11:34.223Z,100538.00
2022-09-03T05:14:02.344Z,100540.00
2022-09-03T05:16:33.612Z,100539.00
2022-09-03T05:19:02.099Z,100540.00
2022-09-03T05:21:30.278Z,100530.00
2022-09-03T05:23:59.635Z,100523.00
2022-09-03T05:26:38.692Z,100530.00
2022-09-03T05:29:07.944Z,100534.00
2022-09-03T05:31:39.258Z,100536.00
2022-09-03T05:34:07.431Z,100535.00
2022-09-03T05:36:37.747Z,100527.00
2022-09-03T05:39:07.302Z,100527.00
2022-09-03T05:41:35.682Z,100535.00
2022-09-03T05:44:04.338Z,100535.00
2022-09-03T05:46:33.822Z,100539.00
2022-09-03T05:49:06.865Z,100539.00
2022-09-03T05:51:35.999Z,100540.00
2022-09-03T05:54:04.361Z,100545.00
2022-09-03T05:56:35.897Z,100538.00
2022-09-03T05:59:07.101Z,100543.00
2022-09-03T06:01:37.898Z,100534.00
2022-09-03T06:04:07.793Z,100541.00
2022-09-03T06:06:38.037Z,100540.00
2022-09-03T06:09:11.700Z,100542.00
2022-09-03T06:11:40.909Z,100549.00
2022-09-03T06:14:11.266Z,100549.00
2022-09-03T06:16:41.561Z,100545.00
2022-09-03T06:19:11.133Z,100549.00
2022-09-03T06:21:43.048Z,100551.00
2022-09-03T06:24:17.139Z,100547.00
2022-09-03T06:26:45.676Z,100546.00
2022-09-03T06:29:14.504Z,100541.00
2022-09-03T06:31:43.040Z,100552.00
2022-09-03T06:34:10.879Z,100545.00
2022-09-03T06:36:41.555Z,100544.00
2022-09-03T06:39:09.519Z,100548.00
2022-09-03T06:41:37.582Z,100557.00
2022-09-03T06:44:11.731Z,100556.00
2022-09-03T06:46:42.913Z,100558.00
2022-09-03T06:49:11.814Z,100555.00
2022-09-03T06:51:40.358Z,100554.00
2022-09-03T06:54:11.649Z,100553.00
2022-09-03T06:56:41.427Z,100555.00
2022-09-03T06:59:14.690Z,100554.00
2022-09-03T07:01:46.240Z,100553.00
2022-09-03T07:04:20.412Z,100546.00
2022-09-03T07:06:48.766Z,100557.00
2022-09-03T07:09:18.543Z,100545.00
2022-09-03T07:11:48.433Z,100546.00
2022-09-03T07:14:18.898Z,100557.00
2022-09-03T07:16:47.829Z,100559.00
2022-09-03T07:19:16.493Z,100558.00
2022-09-03T07:21:49.550Z,100558.00
2022-09-03T07:24:19.779Z,100557.00
2022-09-03T07:26:49.288Z,100556.00
2022-09-03T07:29:21.023Z,100562.00
2022-09-03T07:31:53.440Z,100565.00
2022-09-03T07:34:24.474Z,100567.00
2022-09-03T07:36:54.306Z,100564.00
2022-09-03T07:39:22.203Z,100557.00
2022-09-03T07:41:50.400Z,100558.00
2022-09-03T07:44:23.059Z,100555.00
2022-09-03T07:46:51.820Z,100552.00
2022-09-03T07:49:22.251Z,100553.00
2022-09-03T07:51:52.829Z,100558.00
2022-09-03T07:54:22.119Z,100556.00
2022-09-03T07:56:50.496Z,100554.00
2022-09-03T07:59:19.438Z,100555.00
2022-09-03T08:01:47.039Z,100563.00
2022-09-03T08:04:14.911Z,100561.00
2022-09-03T08:06:43.148Z,100564.00
2022-09-03T08:09:14.060Z,100569.00
2022-09-03T08:11:43.870Z,100564.00
2022-09-03T08:14:15.546Z,100566.00
2022-09-03T08:16:48.334Z,100566.00
2022-09-03T08:19:19.372Z,100570.00
2022-09-03T08:21:47.761Z,100575.00
2022-09-03T08:24:22.062Z,100568.00
2022-09-03T08:26:52.212Z,100562.00
2022-09-03T08:29:21.649Z,100570.00
2022-09-03T08:31:49.891Z,100560.00
2022-09-03T08:34:18.400Z,100566.00
2022-09-03T08:36:47.489Z,100562.00
2022-09-03T08:39:16.236Z,100565.00
2022-09-03T08:42:07.673Z,100560.00
2022-09-03T08:44:52.683Z,100563.00
2022-09-03T08:47:29.473Z,100566.00
2022-09-03T08:50:01.466Z,100565.00
2022-09-03T08:52:55.546Z,100570.00
2022-09-03T08:55:33.869Z,100556.00
2022-09-03T08:58:14.997Z,100566.00
2022-09-03T09:00:49.087Z,100559.00
2022-09-03T09:03:22.845Z,100566.00
2022-09-03T09:06:17.264Z,100554.00
2022-09-03T09:09:07.403Z,100567.00
2022-09-03T09:12:00.087Z,100562.00
2022-09-03T09:14:52.885Z,100566.00
2022-09-03T09:17:45.490Z,100553.00
2022-09-03T09:20:25.703Z,100551.00
2022-09-03T09:23:09.407Z,100548.00
2022-09-03T09:25:49.376Z,100549.00
2022-09-03T09:28:22.975Z,100548.00
2022-09-03T09:30:52.649Z,100545.00
2022-09-03T09:33:21.232Z,100547.00
2022-09-03T09:35:49.625Z,100550.00
2022-09-03T09:38:32.565Z,100543.00
2022-09-03T09:41:15.656Z,100548.00
2022-09-03T09:43:44.171Z,100548.00
2022-09-03T09:46:23.518Z,100546.00
2022-09-03T09:48:53.940Z,100551.00
2022-09-03T09:51:28.472Z,100550.00
2022-09-03T09:54:14.870Z,100543.00
2022-09-03T09:56:45.776Z,100533.00
2022-09-03T09:59:15.677Z,100543.00
2022-09-03T10:01:45.336Z,100543.00
2022-09-03T10:04:14.973Z,100539.00
2022-09-03T10:06:54.174Z,100545.00
2022-09-03T10:09:31.359Z,100540.00
2022-09-03T10:12:23.681Z,100541.00
2022-09-03T10:14:57.902Z,100551.00
2022-09-03T10:17:47.359Z,100536.00
2022-09-03T10:20:37.470Z,100539.00
2022-09-03T10:23:16.265Z,100538.00
2022-09-03T10:26:07.615Z,100536.00
2022-09-03T10:28:43.319Z,100535.00
2022-09-03T10:31:26.226Z,100536.00
2022-09-03T10:34:16.039Z,100533.00
2022-09-03T10:37:20.761Z,100528.00
2022-09-03T10:40:12.231Z,100530.00
2022-09-03T10:42:52.734Z,100520.00
2022-09-03T10:45:20.467Z,100522.00
2022-09-03T10:48:15.787Z,100531.00
2022-09-03T10:50:50.131Z,100534.00
2022-09-03T10:53:53.511Z,100526.00
2022-09-03T10:56:53.922Z,100520.00
2022-09-03T10:59:48.589Z,100515.00
2022-09-03T11:02:42.664Z,100516.00
2022-09-03T11:05:21.964Z,100519.00
2022-09-03T11:08:19.532Z,100513.00
2022-09-03T11:10:51.196Z,100516.00
2022-09-03T11:13:25.863Z,100513.00
2022-09-03T11:16:01.443Z,100508.00
2022-09-03T11:18:51.226Z,100502.00
2022-09-03T11:21:22.702Z,100504.00
2022-09-03T11:24:05.819Z,100515.00
2022-09-03T11:26:35.499Z,100502.00
2022-09-03T11:29:42.101Z,100499.00
2022-09-03T11:32:16.680Z,100508.00
2022-09-03T11:34:52.809Z,100499.00
2022-09-03T11:37:24.951Z,100504.00
2022-09-03T11:40:09.274Z,100501.00
2022-09-03T11:42:39.019Z,100501.00
2022-09-03T11:45:20.897Z,100499.00
2022-09-03T11:47:49.023Z,100493.00
2022-09-03T11:50:25.316Z,100498.00
2022-09-03T11:53:07.088Z,100497.00
2022-09-03T11:55:50.400Z,100498.00
2022-09-03T11:58:32.954Z,100496.00
2022-09-03T12:01:02.812Z,100496.00
2022-09-03T12:03:54.453Z,100490.00
2022-09-03T12:06:49.984Z,100494.00
2022-09-03T12:09:26.947Z,100491.00
2022-09-03T12:12:04.050Z,100496.00
2022-09-03T12:14:33.610Z,100496.00
2022-09-03T12:17:07.481Z,100482.00
2022-09-03T12:19:42.375Z,100495.00
2022-09-03T12:22:18.851Z,100489.00
2022-09-03T12:24:47.588Z,100485.00
2022-09-03T12:27:26.725Z,100486.00
2022-09-03T12:30:00.871Z,100485.00
2022-09-03T12:32:37.398Z,100476.00
2022-09-03T12:38:10.083Z,100466.00
2022-09-03T12:43:39.568Z,100482.00
2022-09-03T12:46:16.185Z,100479.00
2022-09-03T12:52:29.096Z,100460.00
2022-09-03T12:55:21.298Z,100465.00
2022-09-03T12:58:02.643Z,100461.00
2022-09-03T13:00:35.128Z,100464.00
2022-09-03T13:03:23.247Z,100453.00
2022-09-03T13:06:07.155Z,100453.00
2022-09-03T13:08:49.091Z,100459.00
2022-09-03T13:11:22.024Z,100452.00
2022-09-03T13:14:11.489Z,100446.00
2022-09-03T13:16:39.868Z,100449.00
2022-09-03T13:19:22.806Z,100452.00
2022-09-03T13:22:30.974Z,100452.00
2022-09-03T13:25:22.187Z,100453.00
2022-09-03T13:28:28.058Z,100459.00
2022-09-03T13:31:13.121Z,100453.00
2022-09-03T13:33:58.380Z,100452.00
2022-09-03T13:37:06.465Z,100452.00
2022-09-03T13:39:52.847Z,100445.00
2022-09-03T13:42:42.532Z,100446.00
2022-09-03T13:46:08.124Z,100448.00
2022-09-03T13:49:03.828Z,100457.00
2022-09-03T13:51:57.668Z,100450.00
2022-09-03T13:54:48.281Z,100447.00
2022-09-03T13:57:28.462Z,100447.00
2022-09-03T14:00:11.388Z,100445.00
2022-09-03T14:02:58.212Z,100437.00
2022-09-03T14:05:46.150Z,100449.00
2022-09-03T14:08:31.249Z,100454.00
2022-09-03T14:11:43.367Z,100447.00
2022-09-03T14:14:50.621Z,100439.00
2022-09-03T14:17:45.303Z,100447.00
2022-09-03T14:20:28.949Z,100436.00
2022-09-03T14:23:27.288Z,100437.00
2022-09-03T14:26:01.531Z,100446.00
2022-09-03T14:28:37.646Z,100445.00
2022-09-03T14:31:27.415Z,100447.00
2022-09-03T14:34:06.657Z,100441.00
2022-09-03T14:36:56.567Z,100445.00
2022-09-03T14:39:57.112Z,100446.00
2022-09-03T14:43:08.227Z,100439.00
2022-09-03T14:46:18.765Z,100435.00
2022-09-03T14:49:17.520Z,100432.00
2022-09-03T14:52:03.808Z,100447.00
2022-09-03T14:55:09.687Z,100445.00
2022-09-03T14:58:20.638Z,100440.00
2022-09-03T15:00:58.816Z,100447.00
2022-09-03T15:03:51.010Z,100449.00
2022-09-03T15:06:37.066Z,100446.00
2022-09-03T15:09:40.347Z,100457.00
2022-09-03T15:12:36.406Z,100452.00
2022-09-03T15:15:45.918Z,100449.00
2022-09-03T15:18:42.191Z,100451.00
2022-09-03T15:21:53.546Z,100450.00
2022-09-03T15:24:56.498Z,100456.00
2022-09-03T15:28:01.776Z,100457.00
2022-09-03T15:31:23.956Z,100451.00
2022-09-03T15:34:02.975Z,100456.00
2022-09-03T15:36:50.971Z,100449.00
2022-09-03T15:39:42.160Z,100451.00
2022-09-03T15:42:19.393Z,100448.00
2022-09-03T15:44:52.861Z,100460.00
2022-09-03T15:47:52.016Z,100458.00
2022-09-03T15:50:34.376Z,100456.00
2022-09-03T15:53:29.823Z,100450.00
2022-09-03T15:56:21.741Z,100457.00
2022-09-03T15:59:04.465Z,100448.00
2022-09-03T16:02:19.227Z,100442.00
2022-09-03T16:05:09.846Z,100444.00
2022-09-03T16:07:38.876Z,100443.00
2022-09-03T16:10:31.002Z,100430.00
2022-09-03T16:13:33.419Z,100436.00
2022-09-03T16:16:07.904Z,100437.00
2022-09-03T16:19:00.148Z,100431.00
2022-09-03T16:21:49.305Z,100439.00
2022-09-03T16:24:22.004Z,100428.00
2022-09-03T16:27:08.778Z,100436.00
2022-09-03T16:29:38.762Z,100431.00
2022-09-03T16:32:49.802Z,100435.00
2022-09-03T16:35:20.265Z,100442.00
2022-09-03T16:38:14.508Z,100431.00
2022-09-03T16:40:48.077Z,100438.00
2022-09-03T16:43:47.908Z,100433.00
2022-09-03T16:46:41.302Z,100437.00
2022-09-03T16:49:47.201Z,100433.00
2022-09-03T16:52:56.282Z,100436.00
2022-09-03T16:55:35.618Z,100428.00
2022-09-03T16:58:47.891Z,100436.00
2022-09-03T17:01:18.527Z,100430.00
2022-09-03T17:04:23.449Z,100437.00
2022-09-03T17:07:12.139Z,100442.00
2022-09-03T17:10:18.445Z,100441.00
2022-09-03T17:13:00.307Z,100434.00
2022-09-03T17:16:02.887Z,100444.00
2022-09-03T17:18:44.713Z,100436.00
2022-09-03T17:21:46.544Z,100439.00
2022-09-03T17:24:36.582Z,100435.00
2022-09-03T17:27:48.044Z,100441.00
2022-09-03T17:30:59.780Z,100442.00
2022-09-03T17:34:07.135Z,100432.00
2022-09-03T17:36:38.937Z,100438.00
2022-09-03T17:39:57.169Z,100454.00
2022-09-03T17:43:06.791Z,100447.00
2022-09-03T17:45:40.953Z,100454.00
2022-09-03T17:48:30.737Z,100451.00
2022-09-03T17:51:06.337Z,100460.00
2022-09-03T17:53:52.831Z,100459.00
2022-09-03T17:56:55.850Z,100460.00
2022-09-03T17:59:40.876Z,100464.00
2022-09-03T18:02:29.613Z,100468.00
2022-09-03T18:05:18.918Z,100465.00
2022-09-03T18:07:58.543Z,100471.00
2022-09-03T18:10:49.660Z,100467.00
2022-09-03T18:13:47.406Z,100474.00
2022-09-03T18:16:24.893Z,100472.00
2022-09-03T18:18:58.529Z,100472.00
2022-09-03T18:21:47.499Z,100476.00
2022-09-03T18:24:51.091Z,100485.00
2022-09-03T18:27:59.376Z,100483.00
2022-09-03T18:30:49.186Z,100482.00
2022-09-03T18:33:44.244Z,100489.00
2022-09-03T18:36:33.636Z,100489.00
2022-09-03T18:39:44.185Z,100497.00
2022-09-03T18:42:49.057Z,100494.00
2022-09-03T18:49:15.668Z,100493.00
2022-09-03T18:52:37.658Z,100497.00
2022-09-03T18:55:30.721Z,100503.00
2022-09-03T18:58:25.865Z,100498.00
2022-09-03T19:01:45.695Z,100508.00
2022-09-03T19:05:00.008Z,100501.00
2022-09-03T19:07:49.893Z,100500.00
2022-09-03T19:10:53.332Z,100506.00
2022-09-03T19:13:54.718Z,100511.00
2022-09-03T19:17:00.496Z,100511.00
2022-09-03T19:19:50.736Z,100507.00
2022-09-03T19:22:47.237Z,100505.00
2022-09-03T19:25:36.430Z,100514.00
2022-09-03T19:28:22.884Z,100505.00
2022-09-03T19:31:15.532Z,100514.00
2022-09-03T19:34:11.058Z,100516.00
2022-09-03T19:37:06.538Z,100517.00
2022-09-03T19:40:24.980Z,100520.00
2022-09-03T19:43:41.730Z,100519.00
2022-09-03T19:46:58.515Z,100517.00
2022-09-03T19:50:30.995Z,100521.00
2022-09-03T19:53:22.569Z,100519.00
2022-09-03T19:56:30.749Z,100525.00
2022-09-03T19:59:29.968Z,100522.00
2022-09-03T20:02:18.092Z,100520.00
2022-09-03T20:05:11.120Z,100529.00
2022-09-03T20:07:58.669Z,100528.00
2022-09-03T20:10:26.739Z,100533.00
2022-09-03T20:13:14.087Z,100536.00
2022-09-03T20:16:03.678Z,100541.00
2022-09-03T20:18:57.271Z,100545.00
2022-09-03T20:21:25.221Z,100554.00
2022-09-03T20:24:04.331Z,100554.00
2022-09-03T20:26:57.901Z,100556.00
2022-09-03T20:29:47.964Z,100557.00
2022-09-03T20:32:41.466Z,100553.00
2022-09-03T20:35:47.821Z,100552.00
2022-09-03T20:38:58.840Z,100563.00
2022-09-03T20:41:50.660Z,100564.00
2022-09-03T20:44:46.389Z,100567.00
2022-09-03T20:47:42.185Z,100569.00
2022-09-03T20:50:52.101Z,100575.00
2022-09-03T20:53:44.696Z,100573.00
2022-09-03T20:56:43.745Z,100572.00
2022-09-03T20:59:21.721Z,100581.00
2022-09-03T21:02:28.082Z,100575.00
2022-09-03T21:05:11.211Z,100577.00
2022-09-03T21:08:00.313Z,100571.00
2022-09-03T21:10:58.495Z,100568.00
2022-09-03T21:13:41.985Z,100573.00
2022-09-03T21:16:49.340Z,100576.00
2022-09-03T21:19:47.872Z,100572.00
2022-09-03T21:22:55.059Z,100581.00
2022-09-03T21:25:47.302Z,100577.00
2022-09-03T21:28:32.740Z,100579.00
2022-09-03T21:31:17.093Z,100574.00
2022-09-03T21:33:52.087Z,100588.00
2022-09-03T21:36:36.182Z,100589.00
2022-09-03T21:39:21.195Z,100579.00
2022-09-03T21:42:04.369Z,100593.00
2022-09-03T21:44:41.392Z,100589.00
2022-09-03T21:47:23.692Z,100595.00
2022-09-03T21:50:21.830Z,100589.00
2022-09-03T21:53:16.820Z,100582.00
2022-09-03T21:56:28.537Z,100587.00
2022-09-03T21:59:17.200Z,100592.00
2022-09-03T22:01:56.724Z,100596.00
2022-09-03T22:04:27.347Z,100603.00
2022-09-03T22:07:30.839Z,100602.00
2022-09-03T22:10:04.993Z,100605.00
2022-09-03T22:12:50.597Z,100606.00
2022-09-03T22:15:20.826Z,100601.00
2022-09-03T22:18:28.742Z,100591.00
2022-09-03T22:21:28.779Z,100596.00
2022-09-03T22:24:52.226Z,100595.00
2022-09-03T22:27:37.300Z,100594.00
2022-09-03T22:30:20.378Z,100596.00
2022-09-03T22:33:05.661Z,100589.00
2022-09-03T22:35:59.502Z,100586.00
2022-09-03T22:38:46.601Z,100589.00
2022-09-03T22:41:35.731Z,100596.00
2022-09-03T22:44:32.940Z,100594.00
2022-09-03T22:47:37.348Z,100604.00
2022-09-03T22:50:48.441Z,100600.00
2022-09-03T22:53:32.032Z,100601.00
2022-09-03T22:56:11.888Z,100603.00
2022-09-03T22:58:53.743Z,100604.00
2022-09-03T23:01:31.089Z,100609.00
2022-09-03T23:04:30.633Z,100607.00
2022-09-03T23:07:14.577Z,100602.00
2022-09-03T23:09:56.717Z,100597.00
2022-09-03T23:12:37.976Z,100597.00
2022-09-03T23:15:11.728Z,100606.00
2022-09-03T23:18:01.223Z,100611.00
2022-09-03T23:20:30.967Z,100610.00
2022-09-03T23:23:24.316Z,100611.00
2022-09-03T23:26:18.086Z,100612.00
2022-09-03T23:28:51.085Z,100613.00
2022-09-03T23:31:27.451Z,100617.00
2022-09-03T23:33:56.082Z,100612.00
2022-09-03T23:36:58.008Z,100618.00
2022-09-03T23:39:58.234Z,100609.00
2022-09-03T23:42:58.557Z,100616.00
2022-09-03T23:45:40.165Z,100619.00
2022-09-03T23:48:25.298Z,100627.00
2022-09-03T23:51:29.929Z,100615.00
2022-09-03T23:54:47.176Z,100611.00
2022-09-03T23:58:00.483Z,100613.00
